KAEX/AEX METAR and TAF weather

Enter ICAO airport designator
Station Type Date Time Source
KAEX METAR 2020/11/25 22:53 UTC NOAA

KAEX 252253Z 32005KT 10SM CLR 18/11 A3000 RMK AO2 SLP164 T01780106


Station Type Date Time Source
KAEX Decoded METAR 2020/11/25 22:53 UTC NOAA

ALEXANDRIA INTERNATIONAL AIRPORT, LA, United States (KAEX) 31-33N 092-56W 27M
Nov 25, 2020 - 05:53 PM EST / 2020.11.25 2253 UTC
Wind: from the NW (320 degrees) at 6 MPH (5 KT):0
Visibility: 10 mile(s):0
Sky conditions: clear
Temperature: 64.0 F (17.8 C)
Dew Point: 51.1 F (10.6 C)
Relative Humidity: 62%
Pressure (altimeter): 30 in. Hg (1015 hPa)
ob: KAEX 252253Z 32005KT 10SM CLR 18/11 A3000 RMK AO2 SLP164 T01780106
cycle: 23

Station Type Date Time Source
KAEX TAF 2020/11/25 18:40 UTC NOAA

TAF KAEX 251737Z 2518/2618 29008KT P6SM BKN080
FM260000 VRB03KT P6SM FEW060

Example: see airport list